createdAt,value
2019-04-30T00:00:02.629Z,10.24
2019-04-30T00:02:45.399Z,10.19
2019-04-30T00:05:17.904Z,10.19
2019-04-30T00:07:46.186Z,10.20
2019-04-30T00:10:15.539Z,10.21
2019-04-30T00:12:45.282Z,10.19
2019-04-30T00:15:17.887Z,10.20
2019-04-30T00:17:45.727Z,10.25
2019-04-30T00:20:17.635Z,10.26
2019-04-30T00:22:49.424Z,10.23
2019-04-30T00:25:19.725Z,10.24
2019-04-30T00:27:48.080Z,10.24
2019-04-30T00:30:17.194Z,10.25
2019-04-30T00:32:47.240Z,10.38
2019-04-30T00:35:19.522Z,10.35
2019-04-30T00:37:51.738Z,10.40
2019-04-30T00:40:17.331Z,10.44
2019-04-30T00:42:46.171Z,10.34
2019-04-30T00:45:15.444Z,10.37
2019-04-30T00:47:47.802Z,10.31
2019-04-30T00:50:15.941Z,10.36
2019-04-30T00:52:45.755Z,10.28
2019-04-30T00:55:15.101Z,10.26
2019-04-30T00:57:47.106Z,10.29
2019-04-30T01:00:17.799Z,10.31
2019-04-30T01:02:55.496Z,10.28
2019-04-30T01:05:25.498Z,10.32
2019-04-30T01:07:55.065Z,10.32
2019-04-30T01:10:27.298Z,10.26
2019-04-30T01:12:54.539Z,10.33
2019-04-30T01:15:23.295Z,10.33
2019-04-30T01:17:53.773Z,10.30
2019-04-30T01:20:28.439Z,10.38
2019-04-30T01:22:54.890Z,10.43
2019-04-30T01:25:23.982Z,10.38
2019-04-30T01:27:54.309Z,10.34
2019-04-30T01:30:23.385Z,10.39
2019-04-30T01:32:56.650Z,10.43
2019-04-30T01:35:23.854Z,10.32
2019-04-30T01:37:53.160Z,10.38
2019-04-30T01:40:22.020Z,10.28
2019-04-30T01:42:51.973Z,10.31
2019-04-30T01:45:23.078Z,10.24
2019-04-30T01:47:51.407Z,10.22
2019-04-30T01:50:20.210Z,10.20
2019-04-30T01:52:54.532Z,10.22
2019-04-30T01:55:39.021Z,10.25
2019-04-30T01:58:25.101Z,10.21
2019-04-30T02:00:59.379Z,10.14
2019-04-30T02:03:29.186Z,10.15
2019-04-30T02:05:59.617Z,10.12
2019-04-30T02:08:29.548Z,10.12
2019-04-30T02:10:59.475Z,10.13
2019-04-30T02:13:29.466Z,10.16
2019-04-30T02:15:59.376Z,10.15
2019-04-30T02:18:29.690Z,10.13
2019-04-30T02:20:59.512Z,10.17
2019-04-30T02:23:29.715Z,10.16
2019-04-30T02:25:59.060Z,10.10
2019-04-30T02:28:28.998Z,10.13
2019-04-30T02:31:00.371Z,10.13
2019-04-30T02:33:30.665Z,9.99
2019-04-30T02:36:13.385Z,9.99
2019-04-30T02:38:49.784Z,9.98
2019-04-30T02:41:20.075Z,10.06
2019-04-30T02:43:52.274Z,10.03
2019-04-30T02:46:22.456Z,10.02
2019-04-30T02:48:52.950Z,10.04
2019-04-30T02:51:23.599Z,9.88
2019-04-30T02:54:04.209Z,9.89
2019-04-30T02:56:33.209Z,9.89
2019-04-30T02:59:03.790Z,9.83
2019-04-30T03:01:32.504Z,9.76
2019-04-30T03:04:01.267Z,9.73
2019-04-30T03:06:30.578Z,9.64
2019-04-30T03:09:01.138Z,9.60
2019-04-30T03:11:30.421Z,9.62
2019-04-30T03:13:59.590Z,9.63
2019-04-30T03:16:30.369Z,9.61
2019-04-30T03:19:00.802Z,9.58
2019-04-30T03:21:43.170Z,9.57
2019-04-30T03:24:12.060Z,9.51
2019-04-30T03:26:40.811Z,9.54
2019-04-30T03:29:11.080Z,9.53
2019-04-30T03:31:43.745Z,9.47
2019-04-30T03:34:16.790Z,9.43
2019-04-30T03:36:41.239Z,9.46
2019-04-30T03:39:11.052Z,9.40
2019-04-30T03:41:41.370Z,9.41
2019-04-30T03:44:24.725Z,9.39
2019-04-30T03:46:41.066Z,9.42
2019-04-30T03:49:12.686Z,9.36
2019-04-30T03:51:40.616Z,9.35
2019-04-30T03:54:10.490Z,9.33
2019-04-30T03:56:40.754Z,9.42
2019-04-30T03:59:10.738Z,9.48
2019-04-30T04:01:41.379Z,9.43
2019-04-30T04:04:20.966Z,9.43
2019-04-30T04:07:10.074Z,9.38
2019-04-30T04:09:42.466Z,9.43
2019-04-30T04:12:24.305Z,9.40
2019-04-30T04:14:53.607Z,9.48
2019-04-30T04:17:23.040Z,9.51
2019-04-30T04:19:54.830Z,9.52
2019-04-30T04:22:23.707Z,9.56
2019-04-30T04:24:52.465Z,9.53
2019-04-30T04:27:21.310Z,9.60
2019-04-30T04:29:50.897Z,9.58
2019-04-30T04:32:23.949Z,9.66
2019-04-30T04:34:50.968Z,9.73
2019-04-30T04:37:20.540Z,9.76
2019-04-30T04:39:49.994Z,9.72
2019-04-30T04:42:19.847Z,9.75
2019-04-30T04:44:50.307Z,9.85
2019-04-30T04:47:20.406Z,9.81
2019-04-30T04:49:53.151Z,9.77
2019-04-30T04:52:21.465Z,9.90
2019-04-30T04:54:51.136Z,9.88
2019-04-30T04:57:22.801Z,9.99
2019-04-30T04:59:50.694Z,10.12
2019-04-30T05:02:29.758Z,10.11
2019-04-30T05:04:59.845Z,10.13
2019-04-30T05:07:28.676Z,10.23
2019-04-30T05:10:00.528Z,10.30
2019-04-30T05:12:29.730Z,10.35
2019-04-30T05:14:59.921Z,10.40
2019-04-30T05:17:31.680Z,10.47
2019-04-30T05:19:59.361Z,10.55
2019-04-30T05:22:29.382Z,10.55
2019-04-30T05:24:58.834Z,10.50
2019-04-30T05:27:28.037Z,10.44
2019-04-30T05:29:56.850Z,10.42
2019-04-30T05:32:29.223Z,10.42
2019-04-30T05:34:58.685Z,10.40
2019-04-30T05:37:28.473Z,10.33
2019-04-30T05:39:58.475Z,10.52
2019-04-30T05:42:28.555Z,10.62
2019-04-30T05:44:59.174Z,10.46
2019-04-30T05:47:29.051Z,10.46
2019-04-30T05:49:58.477Z,10.51
2019-04-30T05:52:29.072Z,10.70
2019-04-30T05:54:58.497Z,10.60
2019-04-30T05:57:29.483Z,10.62
2019-04-30T05:59:58.594Z,10.62
2019-04-30T06:02:32.994Z,10.55
2019-04-30T06:04:58.787Z,10.64
2019-04-30T06:07:29.794Z,10.80
2019-04-30T06:10:05.358Z,10.86
2019-04-30T06:12:53.819Z,10.88
2019-04-30T06:15:39.413Z,10.79
2019-04-30T06:18:13.547Z,10.79
2019-04-30T06:20:38.748Z,10.80
2019-04-30T06:23:09.145Z,10.83
2019-04-30T06:25:55.664Z,10.80
2019-04-30T06:28:09.728Z,11.04
2019-04-30T06:30:39.628Z,11.08
2019-04-30T06:33:09.354Z,11.13
2019-04-30T06:35:39.504Z,11.10
2019-04-30T06:38:08.634Z,11.24
2019-04-30T06:40:39.130Z,11.24
2019-04-30T06:43:09.128Z,11.28
2019-04-30T06:45:38.777Z,11.11
2019-04-30T06:48:09.000Z,11.10
2019-04-30T06:50:39.348Z,11.04
2019-04-30T06:53:09.309Z,11.13
2019-04-30T06:55:39.265Z,11.17
2019-04-30T06:58:14.632Z,11.22
2019-04-30T07:00:40.177Z,11.22
2019-04-30T07:03:09.741Z,11.39
2019-04-30T07:05:39.102Z,11.35
2019-04-30T07:08:36.033Z,11.36
2019-04-30T07:11:13.582Z,11.44
2019-04-30T07:13:43.133Z,11.57
2019-04-30T07:16:11.930Z,11.61
2019-04-30T07:18:40.668Z,11.66
2019-04-30T07:21:09.463Z,11.68
2019-04-30T07:23:38.803Z,11.83
2019-04-30T07:26:09.100Z,11.88
2019-04-30T07:28:44.709Z,12.03
2019-04-30T07:31:14.327Z,12.04
2019-04-30T07:33:39.781Z,12.02
2019-04-30T07:36:09.689Z,12.17
2019-04-30T07:38:45.024Z,12.28
2019-04-30T07:41:09.697Z,12.08
2019-04-30T07:43:39.349Z,12.08
2019-04-30T07:46:09.325Z,11.91
2019-04-30T07:48:40.335Z,12.04
2019-04-30T07:51:10.187Z,12.04
2019-04-30T07:53:40.359Z,11.93
2019-04-30T07:56:24.378Z,11.98
2019-04-30T07:58:39.834Z,11.73
2019-04-30T08:01:10.391Z,11.64
2019-04-30T08:03:41.048Z,11.54
2019-04-30T08:06:10.388Z,11.65
2019-04-30T08:08:40.931Z,11.74
2019-04-30T08:11:22.788Z,11.63
2019-04-30T08:13:41.283Z,11.76
2019-04-30T08:16:10.726Z,11.63
2019-04-30T08:18:39.483Z,11.55
2019-04-30T08:21:09.461Z,11.58
2019-04-30T08:23:39.762Z,11.68
2019-04-30T08:26:08.917Z,11.78
2019-04-30T08:28:38.629Z,11.83
2019-04-30T08:31:09.026Z,11.82
2019-04-30T08:33:40.112Z,11.76
2019-04-30T08:36:09.393Z,11.85
2019-04-30T08:38:39.478Z,11.76
2019-04-30T08:41:09.281Z,11.80
2019-04-30T08:43:39.417Z,11.61
2019-04-30T08:46:09.452Z,11.63
2019-04-30T08:48:49.826Z,11.81
2019-04-30T08:51:09.950Z,11.75
2019-04-30T08:53:41.120Z,11.67
2019-04-30T08:56:10.185Z,11.86
2019-04-30T08:58:39.159Z,11.97
2019-04-30T09:01:08.749Z,11.94
2019-04-30T09:03:39.273Z,11.84
2019-04-30T09:06:09.665Z,11.74
2019-04-30T09:08:40.098Z,11.72
2019-04-30T09:11:22.132Z,11.77
2019-04-30T09:13:39.471Z,11.67
2019-04-30T09:16:09.235Z,11.46
2019-04-30T09:18:39.376Z,11.23
2019-04-30T09:21:08.978Z,11.36
2019-04-30T09:23:44.643Z,11.21
2019-04-30T09:26:08.750Z,11.44
2019-04-30T09:28:40.785Z,11.51
2019-04-30T09:31:08.795Z,11.56
2019-04-30T09:33:39.380Z,11.58
2019-04-30T09:36:09.189Z,11.63
2019-04-30T09:38:38.932Z,11.74
2019-04-30T09:41:09.357Z,11.67
2019-04-30T09:43:38.193Z,11.62
2019-04-30T09:46:17.891Z,11.84
2019-04-30T09:48:38.647Z,12.09
2019-04-30T09:51:10.159Z,12.18
2019-04-30T09:53:39.478Z,12.20
2019-04-30T09:56:09.562Z,12.46
2019-04-30T09:58:39.340Z,12.44
2019-04-30T10:01:09.409Z,12.55
2019-04-30T10:03:39.187Z,12.64
2019-04-30T10:06:08.963Z,12.46
2019-04-30T10:08:47.910Z,12.49
2019-04-30T10:11:18.837Z,12.55
2019-04-30T10:13:47.578Z,12.53
2019-04-30T10:16:26.773Z,12.54
2019-04-30T10:18:55.525Z,12.59
2019-04-30T10:21:24.403Z,12.73
2019-04-30T10:23:53.145Z,12.85
2019-04-30T10:26:22.006Z,12.85
2019-04-30T10:28:52.919Z,12.79
2019-04-30T10:31:21.678Z,12.88
2019-04-30T10:33:50.518Z,13.16
2019-04-30T10:36:19.498Z,13.52
2019-04-30T10:38:49.403Z,13.13
2019-04-30T10:41:18.842Z,13.23
2019-04-30T10:43:49.222Z,13.58
2019-04-30T10:46:18.195Z,13.77
2019-04-30T10:48:47.056Z,13.71
2019-04-30T10:51:15.809Z,13.91
2019-04-30T10:53:44.590Z,14.04
2019-04-30T10:56:13.538Z,14.69
2019-04-30T10:58:42.328Z,15.00
2019-04-30T11:01:11.071Z,14.98
2019-04-30T11:03:39.849Z,15.50
2019-04-30T11:06:08.756Z,15.81
2019-04-30T11:08:37.548Z,15.81
2019-04-30T11:11:06.354Z,15.91
2019-04-30T11:13:35.130Z,16.01
2019-04-30T11:16:12.434Z,16.30
2019-04-30T11:18:35.619Z,16.54
2019-04-30T11:21:04.802Z,16.55
2019-04-30T11:23:33.887Z,16.74
2019-04-30T11:26:03.643Z,16.88
2019-04-30T11:28:32.906Z,16.92
2019-04-30T11:31:03.543Z,17.49
2019-04-30T11:33:32.682Z,17.14
2019-04-30T11:36:02.992Z,17.06
2019-04-30T11:38:32.203Z,17.64
2019-04-30T11:41:00.991Z,17.55
2019-04-30T11:43:29.780Z,16.66
2019-04-30T11:46:18.696Z,16.97
2019-04-30T11:48:49.010Z,17.60
2019-04-30T11:51:19.410Z,17.55
2019-04-30T11:53:49.010Z,17.82
2019-04-30T11:56:18.040Z,17.58
2019-04-30T11:58:48.798Z,17.46
2019-04-30T12:01:19.526Z,17.76
2019-04-30T12:03:49.763Z,18.29
2019-04-30T12:06:18.681Z,17.95
2019-04-30T12:09:04.899Z,18.10
2019-04-30T12:11:40.917Z,18.93
2019-04-30T12:14:09.699Z,19.27
2019-04-30T12:16:39.560Z,19.30
2019-04-30T12:19:09.535Z,19.32
2019-04-30T12:21:38.341Z,18.60
2019-04-30T12:24:07.111Z,18.01
2019-04-30T12:26:35.853Z,18.31
2019-04-30T12:29:05.269Z,18.82
2019-04-30T12:31:34.018Z,18.18
2019-04-30T12:34:02.777Z,19.02
2019-04-30T12:36:31.539Z,19.47
2019-04-30T12:39:00.344Z,19.21
2019-04-30T12:41:41.418Z,19.67
2019-04-30T12:44:11.941Z,19.62
2019-04-30T12:46:40.689Z,19.00
2019-04-30T12:49:11.270Z,19.23
2019-04-30T12:51:48.801Z,19.87
2019-04-30T12:54:19.797Z,20.34
2019-04-30T12:57:02.038Z,20.38
2019-04-30T12:59:30.815Z,20.42
2019-04-30T13:01:59.564Z,20.64
2019-04-30T13:04:29.333Z,19.65
2019-04-30T13:07:01.599Z,20.39
2019-04-30T13:09:30.280Z,20.51
2019-04-30T13:12:00.583Z,21.09
2019-04-30T13:14:30.828Z,20.67
2019-04-30T13:17:00.121Z,20.78
2019-04-30T13:19:28.900Z,20.56
2019-04-30T13:21:58.712Z,21.17
2019-04-30T13:24:31.087Z,20.63
2019-04-30T13:26:59.483Z,20.25
2019-04-30T13:29:35.889Z,21.11
2019-04-30T13:32:05.148Z,21.43
2019-04-30T13:34:53.479Z,21.22
2019-04-30T13:37:22.228Z,21.13
2019-04-30T13:40:07.709Z,20.74
2019-04-30T13:42:53.288Z,21.21
2019-04-30T13:45:22.089Z,20.94
2019-04-30T13:47:50.837Z,20.70
2019-04-30T13:50:21.442Z,20.81
2019-04-30T13:52:50.098Z,20.81
2019-04-30T13:55:19.254Z,21.00
2019-04-30T13:57:48.112Z,21.18
2019-04-30T14:00:21.336Z,21.21
2019-04-30T14:02:51.691Z,20.86
2019-04-30T14:05:21.224Z,20.87
2019-04-30T14:07:54.728Z,20.81
2019-04-30T14:10:23.745Z,21.02
2019-04-30T14:12:54.074Z,20.76
2019-04-30T14:15:22.975Z,20.44
2019-04-30T14:17:51.748Z,20.47
2019-04-30T14:20:20.599Z,20.16
2019-04-30T14:22:49.380Z,20.46
2019-04-30T14:25:18.372Z,20.28
2019-04-30T14:27:52.265Z,20.26
2019-04-30T14:30:19.427Z,20.20
2019-04-30T14:32:50.581Z,20.62
2019-04-30T14:35:18.884Z,20.19
2019-04-30T14:37:49.489Z,20.11
2019-04-30T14:40:20.300Z,20.35
2019-04-30T14:42:50.781Z,20.27
2019-04-30T14:45:27.945Z,19.87
2019-04-30T14:48:01.013Z,19.79
2019-04-30T14:50:30.563Z,20.46
2019-04-30T14:53:00.925Z,20.07
2019-04-30T14:55:36.981Z,20.64
2019-04-30T14:58:25.622Z,20.33
2019-04-30T15:01:12.091Z,20.50
2019-04-30T15:03:41.109Z,20.51
2019-04-30T15:06:09.858Z,19.99
2019-04-30T15:08:39.380Z,20.17
2019-04-30T15:11:09.099Z,20.26
2019-04-30T15:13:39.340Z,20.08
2019-04-30T15:16:08.264Z,20.04
2019-04-30T15:18:38.811Z,20.14
2019-04-30T15:21:09.443Z,19.87
2019-04-30T15:23:42.935Z,19.90
2019-04-30T15:26:21.674Z,19.70
2019-04-30T15:28:42.217Z,19.62
2019-04-30T15:31:11.000Z,19.29
2019-04-30T15:33:41.369Z,19.19
2019-04-30T15:36:10.179Z,19.32
2019-04-30T15:38:56.556Z,18.76
2019-04-30T15:41:25.428Z,18.76
2019-04-30T15:43:54.176Z,18.55
2019-04-30T15:46:23.727Z,18.58
2019-04-30T15:48:52.511Z,18.56
2019-04-30T15:51:21.289Z,18.46
2019-04-30T15:53:50.038Z,18.57
2019-04-30T15:56:19.324Z,18.53
2019-04-30T15:59:09.008Z,18.43
2019-04-30T16:01:40.056Z,18.47
2019-04-30T16:04:10.792Z,18.15
2019-04-30T16:06:39.572Z,18.13
2019-04-30T16:09:12.332Z,17.96
2019-04-30T16:11:58.692Z,17.98
2019-04-30T16:14:29.541Z,17.90
2019-04-30T16:17:04.169Z,17.70
2019-04-30T16:19:32.976Z,17.82
2019-04-30T16:22:01.742Z,17.77
2019-04-30T16:24:30.512Z,17.73
2019-04-30T16:26:59.519Z,17.81
2019-04-30T16:29:28.317Z,17.54
2019-04-30T16:31:59.027Z,17.44
2019-04-30T16:34:30.194Z,17.52
2019-04-30T16:36:59.061Z,17.45
2019-04-30T16:39:28.810Z,17.46
2019-04-30T16:41:59.189Z,17.43
2019-04-30T16:44:28.112Z,17.31
2019-04-30T16:46:56.981Z,17.19
2019-04-30T16:49:25.754Z,17.00
2019-04-30T16:51:54.610Z,17.04
2019-04-30T16:54:25.202Z,17.07
2019-04-30T16:57:03.443Z,16.99
2019-04-30T16:59:26.049Z,16.94
2019-04-30T17:01:57.836Z,16.71
2019-04-30T17:04:43.079Z,16.54
2019-04-30T17:07:19.353Z,16.48
2019-04-30T17:09:50.980Z,16.43
2019-04-30T17:12:27.229Z,16.33
2019-04-30T17:15:13.591Z,16.16
2019-04-30T17:17:42.634Z,16.09
2019-04-30T17:20:12.434Z,15.93
2019-04-30T17:22:41.212Z,15.85
2019-04-30T17:25:10.307Z,15.85
2019-04-30T17:27:39.355Z,15.76
2019-04-30T17:30:11.057Z,15.67
2019-04-30T17:32:39.961Z,15.55
2019-04-30T17:35:13.914Z,15.53
2019-04-30T17:37:46.645Z,15.31
2019-04-30T17:40:15.744Z,15.31
2019-04-30T17:42:44.515Z,15.31
2019-04-30T17:45:13.509Z,15.30
2019-04-30T17:47:42.371Z,15.12
2019-04-30T17:50:11.501Z,14.98
2019-04-30T17:52:40.520Z,14.88
2019-04-30T17:55:10.610Z,14.87
2019-04-30T17:57:40.328Z,14.77
2019-04-30T18:00:18.942Z,14.61
2019-04-30T18:02:42.000Z,14.52
2019-04-30T18:05:11.372Z,14.32
2019-04-30T18:07:40.634Z,14.31
2019-04-30T18:10:11.296Z,14.10
2019-04-30T18:12:40.258Z,14.00
2019-04-30T18:15:17.802Z,13.94
2019-04-30T18:17:50.909Z,13.88
2019-04-30T18:20:36.374Z,13.90
2019-04-30T18:23:21.819Z,13.70
2019-04-30T18:25:55.121Z,13.61
2019-04-30T18:28:23.865Z,13.46
2019-04-30T18:30:52.609Z,13.37
2019-04-30T18:33:21.522Z,13.28
2019-04-30T18:35:50.304Z,13.22
2019-04-30T18:38:19.103Z,13.03
2019-04-30T18:40:49.566Z,12.93
2019-04-30T18:43:18.924Z,12.81
2019-04-30T18:45:49.503Z,12.77
2019-04-30T18:48:19.542Z,12.69
2019-04-30T18:50:48.437Z,12.62
2019-04-30T18:53:18.760Z,12.30
2019-04-30T18:55:50.519Z,12.39
2019-04-30T18:58:20.048Z,12.33
2019-04-30T19:00:49.452Z,12.19
2019-04-30T19:03:21.593Z,12.16
2019-04-30T19:05:50.723Z,12.05
2019-04-30T19:08:33.240Z,11.95
2019-04-30T19:11:06.491Z,11.84
2019-04-30T19:13:36.891Z,11.72
2019-04-30T19:16:25.713Z,11.64
2019-04-30T19:18:55.427Z,11.56
2019-04-30T19:21:24.289Z,11.41
2019-04-30T19:23:53.079Z,11.41
2019-04-30T19:26:21.863Z,11.32
2019-04-30T19:28:50.669Z,11.28
2019-04-30T19:31:19.941Z,11.23
2019-04-30T19:33:49.051Z,11.18
2019-04-30T19:36:20.691Z,11.20
2019-04-30T19:38:59.839Z,11.10
2019-04-30T19:41:28.861Z,11.07
2019-04-30T19:43:57.774Z,10.97
2019-04-30T19:46:26.564Z,10.87
2019-04-30T19:48:55.376Z,10.77
2019-04-30T19:51:24.157Z,10.69
2019-04-30T19:53:52.919Z,10.67
2019-04-30T19:56:21.810Z,10.56
2019-04-30T19:59:01.461Z,10.44
2019-04-30T20:01:21.105Z,10.44
2019-04-30T20:03:49.891Z,10.28
2019-04-30T20:06:19.781Z,10.29
2019-04-30T20:08:48.577Z,10.23
2019-04-30T20:11:18.167Z,10.12
2019-04-30T20:13:48.874Z,9.99
2019-04-30T20:16:19.586Z,9.84
2019-04-30T20:18:50.945Z,9.83
2019-04-30T20:21:27.954Z,9.72
2019-04-30T20:23:52.679Z,9.59
2019-04-30T20:26:21.460Z,9.55
2019-04-30T20:28:51.176Z,9.43
2019-04-30T20:31:20.385Z,9.39
2019-04-30T20:33:56.814Z,9.37
2019-04-30T20:36:28.821Z,9.35
2019-04-30T20:39:01.628Z,9.31
2019-04-30T20:41:37.053Z,9.25
2019-04-30T20:44:08.820Z,9.26
2019-04-30T20:46:39.329Z,9.22
2019-04-30T20:49:12.198Z,9.28
2019-04-30T20:51:52.730Z,9.24
2019-04-30T20:54:12.372Z,9.23
2019-04-30T20:56:41.312Z,9.16
2019-04-30T20:59:10.895Z,9.20
2019-04-30T21:01:40.283Z,9.21
2019-04-30T21:04:09.830Z,9.32
2019-04-30T21:06:39.539Z,9.29
2019-04-30T21:09:08.602Z,9.26
2019-04-30T21:11:38.570Z,9.30
2019-04-30T21:14:08.949Z,9.19
2019-04-30T21:16:37.826Z,9.22
2019-04-30T21:19:06.654Z,9.28
2019-04-30T21:21:35.500Z,9.37
2019-04-30T21:24:05.238Z,9.28
2019-04-30T21:26:34.731Z,9.24
2019-04-30T21:29:11.146Z,9.46
2019-04-30T21:31:36.566Z,9.58
2019-04-30T21:34:10.631Z,9.60
2019-04-30T21:36:39.786Z,9.71
2019-04-30T21:39:11.932Z,9.79
2019-04-30T21:41:41.581Z,9.66
2019-04-30T21:44:11.987Z,9.63
2019-04-30T21:46:41.941Z,9.65
2019-04-30T21:49:12.457Z,9.59
2019-04-30T21:51:41.530Z,9.54
2019-04-30T21:54:10.751Z,9.55
2019-04-30T21:56:40.143Z,9.50
2019-04-30T21:59:09.298Z,9.55
2019-04-30T22:01:38.772Z,9.51
2019-04-30T22:04:08.796Z,9.41
2019-04-30T22:06:39.498Z,9.34
2019-04-30T22:09:10.943Z,9.32
2019-04-30T22:11:39.712Z,9.36
2019-04-30T22:14:08.466Z,9.38
2019-04-30T22:16:37.243Z,9.38
2019-04-30T22:19:06.134Z,9.44
2019-04-30T22:21:34.876Z,9.37
2019-04-30T22:24:03.626Z,9.42
2019-04-30T22:26:32.415Z,9.37
2019-04-30T22:29:01.174Z,9.41
2019-04-30T22:31:30.090Z,9.41
2019-04-30T22:33:59.060Z,9.39
2019-04-30T22:36:29.393Z,9.42
2019-04-30T22:39:15.818Z,9.44
2019-04-30T22:41:44.574Z,9.46
2019-04-30T22:44:13.325Z,9.42
2019-04-30T22:46:42.130Z,9.34
2019-04-30T22:49:10.985Z,9.34
2019-04-30T22:51:39.749Z,9.37
2019-04-30T22:54:08.523Z,9.35
2019-04-30T22:56:37.488Z,9.41
2019-04-30T22:59:06.288Z,9.42
2019-04-30T23:01:52.940Z,9.37
2019-04-30T23:04:38.975Z,9.28
2019-04-30T23:07:07.720Z,9.28
2019-04-30T23:09:36.557Z,9.30
2019-04-30T23:12:05.632Z,9.27
2019-04-30T23:14:34.486Z,9.19
2019-04-30T23:17:03.619Z,9.35
2019-04-30T23:19:32.465Z,9.23
2019-04-30T23:22:01.239Z,9.22
2019-04-30T23:24:30.038Z,9.25
2019-04-30T23:26:58.777Z,9.33
2019-04-30T23:29:27.514Z,9.33
2019-04-30T23:31:56.287Z,9.28
2019-04-30T23:34:25.035Z,9.30
2019-04-30T23:36:53.803Z,9.31
2019-04-30T23:39:22.557Z,9.39
2019-04-30T23:41:51.341Z,9.39
2019-04-30T23:44:20.400Z,9.35
2019-04-30T23:46:49.168Z,9.36
2019-04-30T23:49:18.216Z,9.36
2019-04-30T23:51:46.985Z,9.40
2019-04-30T23:54:15.808Z,9.39
2019-04-30T23:56:44.592Z,9.33
2019-04-30T23:59:13.434Z,9.36
